sensor_id;sensor_type;location;lat;lon;timestamp;pressure;altitude;pressure_sealevel;temperature;humidity
57827;BME280;43656;57.746;11.780;2022-08-27T00:00:42;101106.25;;;17.30;100.00
57827;BME280;43656;57.746;11.780;2022-08-27T00:03:08;101057.66;;;16.99;100.00
57827;BME280;43656;57.746;11.780;2022-08-27T00:05:34;101079.88;;;17.19;100.00
57827;BME280;43656;57.746;11.780;2022-08-27T00:08:03;101144.78;;;17.51;100.00
57827;BME280;43656;57.746;11.780;2022-08-27T00:10:29;101095.84;;;17.27;100.00
57827;BME280;43656;57.746;11.780;2022-08-27T00:12:55;101093.00;;;17.22;100.00
57827;BME280;43656;57.746;11.780;2022-08-27T00:25:41;101041.44;;;16.80;100.00
57827;BME280;43656;57.746;11.780;2022-08-27T00:35:52;101230.16;;;17.92;100.00
57827;BME280;43656;57.746;11.780;2022-08-27T00:40:56;101039.19;;;16.77;100.00
57827;BME280;43656;57.746;11.780;2022-08-27T00:43:24;101220.09;;;17.92;100.00
57827;BME280;43656;57.746;11.780;2022-08-27T00:45:52;101090.75;;;17.07;100.00
57827;BME280;43656;57.746;11.780;2022-08-27T00:53:31;101251.31;;;18.13;100.00
57827;BME280;43656;57.746;11.780;2022-08-27T01:27:06;101128.94;;;17.24;100.00
57827;BME280;43656;57.746;11.780;2022-08-27T02:29:01;101019.47;;;16.94;100.00
57827;BME280;43656;57.746;11.780;2022-08-27T02:31:27;100999.50;;;16.76;100.00
57827;BME280;43656;57.746;11.780;2022-08-27T02:39:06;100995.94;;;16.87;100.00
57827;BME280;43656;57.746;11.780;2022-08-27T02:41:32;100996.78;;;16.76;100.00
57827;BME280;43656;57.746;11.780;2022-08-27T02:43:57;101009.53;;;16.87;100.00
57827;BME280;43656;57.746;11.780;2022-08-27T02:46:23;101018.16;;;16.84;100.00
57827;BME280;43656;57.746;11.780;2022-08-27T02:48:48;101059.66;;;17.03;100.00
57827;BME280;43656;57.746;11.780;2022-08-27T02:51:14;100984.31;;;16.57;100.00
57827;BME280;43656;57.746;11.780;2022-08-27T02:53:40;101004.31;;;16.62;100.00
57827;BME280;43656;57.746;11.780;2022-08-27T02:56:07;101066.53;;;17.06;100.00
57827;BME280;43656;57.746;11.780;2022-08-27T02:58:34;101012.44;;;16.74;100.00
57827;BME280;43656;57.746;11.780;2022-08-27T03:03:34;101077.16;;;17.19;100.00
57827;BME280;43656;57.746;11.780;2022-08-27T03:06:00;101086.63;;;17.17;100.00
57827;BME280;43656;57.746;11.780;2022-08-27T03:08:26;101106.13;;;17.25;100.00
57827;BME280;43656;57.746;11.780;2022-08-27T03:10:53;100993.53;;;16.56;100.00
57827;BME280;43656;57.746;11.780;2022-08-27T03:31:26;100976.84;;;16.40;100.00
57827;BME280;43656;57.746;11.780;2022-08-27T03:33:54;100973.16;;;16.35;100.00
57827;BME280;43656;57.746;11.780;2022-08-27T03:36:20;100980.13;;;16.31;100.00
57827;BME280;43656;57.746;11.780;2022-08-27T04:04:38;101055.63;;;16.82;100.00
57827;BME280;43656;57.746;11.780;2022-08-27T04:07:03;101146.22;;;17.42;100.00
57827;BME280;43656;57.746;11.780;2022-08-27T04:09:29;101082.22;;;17.04;100.00
57827;BME280;43656;57.746;11.780;2022-08-27T04:37:46;101081.06;;;17.23;100.00
57827;BME280;43656;57.746;11.780;2022-08-27T04:47:57;101046.06;;;17.38;100.00
57827;BME280;43656;57.746;11.780;2022-08-27T04:55:29;101214.34;;;18.81;100.00
57827;BME280;43656;57.746;11.780;2022-08-27T05:05:41;101019.72;;;17.79;100.00
57827;BME280;43656;57.746;11.780;2022-08-27T05:16:52;101218.22;;;19.31;100.00
57827;BME280;43656;57.746;11.780;2022-08-27T05:19:18;101063.28;;;18.37;100.00
57827;BME280;43656;57.746;11.780;2022-08-27T05:21:48;101150.22;;;18.95;100.00
57827;BME280;43656;57.746;11.780;2022-08-27T07:12:51;101077.38;;;20.61;100.00
57827;BME280;43656;57.746;11.780;2022-08-27T07:41:10;101212.94;;;21.71;100.00
57827;BME280;43656;57.746;11.780;2022-08-27T07:43:37;100999.00;;;20.40;100.00
57827;BME280;43656;57.746;11.780;2022-08-27T07:46:22;101061.22;;;20.87;100.00
57827;BME280;43656;57.746;11.780;2022-08-27T07:48:51;101086.22;;;21.01;100.00
57827;BME280;43656;57.746;11.780;2022-08-27T07:51:19;101201.97;;;21.71;100.00
57827;BME280;43656;57.746;11.780;2022-08-27T08:06:40;101093.63;;;21.05;100.00
57827;BME280;43656;57.746;11.780;2022-08-27T10:03:36;101097.72;;;20.00;100.00
57827;BME280;43656;57.746;11.780;2022-08-27T11:00:55;101128.56;;;20.93;100.00
57827;BME280;43656;57.746;11.780;2022-08-27T12:36:32;101207.50;;;21.76;100.00
57827;BME280;43656;57.746;11.780;2022-08-27T12:38:59;101124.41;;;21.23;100.00
57827;BME280;43656;57.746;11.780;2022-08-27T13:07:26;101214.66;;;21.82;100.00
57827;BME280;43656;57.746;11.780;2022-08-27T13:17:42;101265.13;;;22.28;100.00
57827;BME280;43656;57.746;11.780;2022-08-27T13:22:44;101091.06;;;21.31;100.00
57827;BME280;43656;57.746;11.780;2022-08-27T13:25:29;101257.84;;;22.60;100.00
57827;BME280;43656;57.746;11.780;2022-08-27T13:28:00;101260.41;;;22.82;100.00
57827;BME280;43656;57.746;11.780;2022-08-27T13:30:33;101061.81;;;21.84;100.00
57827;BME280;43656;57.746;11.780;2022-08-27T13:33:01;101077.72;;;21.87;100.00
57827;BME280;43656;57.746;11.780;2022-08-27T13:35:27;101118.59;;;21.99;100.00
57827;BME280;43656;57.746;11.780;2022-08-27T13:37:57;101092.91;;;21.57;100.00
57827;BME280;43656;57.746;11.780;2022-08-27T13:40:50;101203.88;;;22.13;100.00
57827;BME280;43656;57.746;11.780;2022-08-27T13:43:16;101253.25;;;22.18;100.00
57827;BME280;43656;57.746;11.780;2022-08-27T13:45:47;101029.91;;;20.73;100.00
57827;BME280;43656;57.746;11.780;2022-08-27T13:48:19;101069.44;;;20.92;100.00
57827;BME280;43656;57.746;11.780;2022-08-27T13:50:51;101052.13;;;20.81;100.00
57827;BME280;43656;57.746;11.780;2022-08-27T13:53:26;101250.19;;;22.14;100.00
57827;BME280;43656;57.746;11.780;2022-08-27T13:56:25;101195.69;;;21.75;100.00
57827;BME280;43656;57.746;11.780;2022-08-27T13:58:51;101203.66;;;21.77;100.00
57827;BME280;43656;57.746;11.780;2022-08-27T14:06:32;101042.72;;;20.67;100.00
57827;BME280;43656;57.746;11.780;2022-08-27T14:11:35;101252.50;;;21.90;100.00
57827;BME280;43656;57.746;11.780;2022-08-27T14:14:01;101084.59;;;20.73;100.00
57827;BME280;43656;57.746;11.780;2022-08-27T14:16:30;101128.56;;;20.93;100.00
57827;BME280;43656;57.746;11.780;2022-08-27T14:19:07;101060.97;;;20.56;100.00
57827;BME280;43656;57.746;11.780;2022-08-27T14:34:29;101084.34;;;20.47;100.00
57827;BME280;43656;57.746;11.780;2022-08-27T14:36:55;101072.00;;;20.45;100.00
57827;BME280;43656;57.746;11.780;2022-08-27T14:39:21;101224.84;;;21.49;100.00
57827;BME280;43656;57.746;11.780;2022-08-27T14:59:52;101137.22;;;20.85;100.00
57827;BME280;43656;57.746;11.780;2022-08-27T15:02:18;101175.69;;;21.05;100.00
57827;BME280;43656;57.746;11.780;2022-08-27T15:04:45;101247.72;;;21.38;100.00
57827;BME280;43656;57.746;11.780;2022-08-27T15:07:10;101249.44;;;21.17;100.00
57827;BME280;43656;57.746;11.780;2022-08-27T15:09:36;101248.63;;;20.90;100.00
57827;BME280;43656;57.746;11.780;2022-08-27T15:14:37;101041.91;;;19.30;100.00
57827;BME280;43656;57.746;11.780;2022-08-27T15:17:03;101192.28;;;20.23;100.00
57827;BME280;43656;57.746;11.780;2022-08-27T15:19:32;101180.66;;;20.32;100.00
57827;BME280;43656;57.746;11.780;2022-08-27T15:22:19;101117.75;;;20.05;100.00
57827;BME280;43656;57.746;11.780;2022-08-27T15:24:49;101047.22;;;19.58;100.00
57827;BME280;43656;57.746;11.780;2022-08-27T15:27:15;101153.59;;;20.31;100.00
57827;BME280;43656;57.746;11.780;2022-08-27T15:29:41;101038.06;;;19.64;100.00
57827;BME280;43656;57.746;11.780;2022-08-27T15:34:43;101130.09;;;20.30;100.00
57827;BME280;43656;57.746;11.780;2022-08-27T15:39:36;101137.25;;;20.14;100.00
57827;BME280;43656;57.746;11.780;2022-08-27T15:42:02;101029.81;;;19.42;100.00
57827;BME280;43656;57.746;11.780;2022-08-27T15:44:28;101057.06;;;19.59;100.00
57827;BME280;43656;57.746;11.780;2022-08-27T15:46:54;101057.00;;;19.54;100.00
57827;BME280;43656;57.746;11.780;2022-08-27T15:49:19;101156.00;;;20.27;100.00
57827;BME280;43656;57.746;11.780;2022-08-27T15:51:45;101126.53;;;20.07;100.00
57827;BME280;43656;57.746;11.780;2022-08-27T15:54:10;101260.38;;;20.90;100.00
57827;BME280;43656;57.746;11.780;2022-08-27T15:56:36;101249.31;;;20.80;100.00
57827;BME280;43656;57.746;11.780;2022-08-27T15:59:02;101250.34;;;20.74;100.00
57827;BME280;43656;57.746;11.780;2022-08-27T16:01:30;101191.16;;;20.40;100.00
57827;BME280;43656;57.746;11.780;2022-08-27T16:03:56;101252.09;;;20.85;100.00
57827;BME280;43656;57.746;11.780;2022-08-27T16:06:24;101246.94;;;20.88;100.00
57827;BME280;43656;57.746;11.780;2022-08-27T16:08:49;101234.56;;;20.81;100.00
57827;BME280;43656;57.746;11.780;2022-08-27T16:11:15;101240.34;;;20.84;100.00
57827;BME280;43656;57.746;11.780;2022-08-27T16:13:41;101216.91;;;20.67;100.00
57827;BME280;43656;57.746;11.780;2022-08-27T16:16:08;101241.56;;;20.72;100.00
57827;BME280;43656;57.746;11.780;2022-08-27T16:18:34;101236.78;;;20.62;100.00
57827;BME280;43656;57.746;11.780;2022-08-27T16:21:01;101236.28;;;20.65;100.00
57827;BME280;43656;57.746;11.780;2022-08-27T16:23:28;101234.69;;;20.69;100.00
57827;BME280;43656;57.746;11.780;2022-08-27T16:25:54;101234.44;;;20.71;100.00
57827;BME280;43656;57.746;11.780;2022-08-27T16:28:20;101228.41;;;20.69;100.00
57827;BME280;43656;57.746;11.780;2022-08-27T16:30:46;101211.38;;;20.61;100.00
57827;BME280;43656;57.746;11.780;2022-08-27T16:33:13;101230.09;;;20.75;100.00
57827;BME280;43656;57.746;11.780;2022-08-27T16:35:39;101237.81;;;20.78;100.00
57827;BME280;43656;57.746;11.780;2022-08-27T16:38:22;101233.75;;;20.80;100.00
57827;BME280;43656;57.746;11.780;2022-08-27T16:40:52;101242.75;;;20.81;100.00
57827;BME280;43656;57.746;11.780;2022-08-27T16:43:21;101248.03;;;20.87;100.00
57827;BME280;43656;57.746;11.780;2022-08-27T16:45:49;101247.53;;;20.91;100.00
57827;BME280;43656;57.746;11.780;2022-08-27T16:48:15;101247.25;;;20.92;100.00
57827;BME280;43656;57.746;11.780;2022-08-27T16:51:00;101253.56;;;20.93;100.00
57827;BME280;43656;57.746;11.780;2022-08-27T16:53:26;101237.59;;;20.84;100.00
57827;BME280;43656;57.746;11.780;2022-08-27T16:55:52;101253.88;;;20.96;100.00
57827;BME280;43656;57.746;11.780;2022-08-27T16:58:20;101254.44;;;20.98;100.00
57827;BME280;43656;57.746;11.780;2022-08-27T17:00:52;101220.00;;;20.75;100.00
57827;BME280;43656;57.746;11.780;2022-08-27T17:03:20;101255.97;;;20.89;100.00
57827;BME280;43656;57.746;11.780;2022-08-27T17:05:45;101253.81;;;20.91;100.00
57827;BME280;43656;57.746;11.780;2022-08-27T17:08:11;101248.97;;;20.98;100.00
57827;BME280;43656;57.746;11.780;2022-08-27T17:23:36;101245.22;;;20.82;100.00
57827;BME280;43656;57.746;11.780;2022-08-27T17:26:05;101053.66;;;19.69;100.00
57827;BME280;43656;57.746;11.780;2022-08-27T17:28:31;101044.22;;;19.60;100.00
57827;BME280;43656;57.746;11.780;2022-08-27T17:33:39;101080.91;;;19.86;100.00
57827;BME280;43656;57.746;11.780;2022-08-27T17:49:01;101172.53;;;20.37;100.00
57827;BME280;43656;57.746;11.780;2022-08-27T17:51:27;101107.09;;;19.82;100.00
57827;BME280;43656;57.746;11.780;2022-08-27T17:59:03;101084.88;;;19.56;100.00
57827;BME280;43656;57.746;11.780;2022-08-27T18:01:30;101271.53;;;20.61;100.00
57827;BME280;43656;57.746;11.780;2022-08-27T18:03:57;101036.25;;;19.14;100.00
57827;BME280;43656;57.746;11.780;2022-08-27T18:06:24;101053.50;;;19.20;100.00
57827;BME280;43656;57.746;11.780;2022-08-27T18:08:51;101047.41;;;19.13;100.00
57827;BME280;43656;57.746;11.780;2022-08-27T18:11:17;101090.31;;;19.34;100.00
57827;BME280;43656;57.746;11.780;2022-08-27T18:13:45;101199.06;;;19.98;100.00
57827;BME280;43656;57.746;11.780;2022-08-27T18:16:12;101072.28;;;19.16;100.00
57827;BME280;43656;57.746;11.780;2022-08-27T18:18:38;101173.72;;;19.81;100.00
57827;BME280;43656;57.746;11.780;2022-08-27T18:21:03;101072.94;;;19.07;100.00
57827;BME280;43656;57.746;11.780;2022-08-27T18:23:29;101038.09;;;18.75;100.00
57827;BME280;43656;57.746;11.780;2022-08-27T18:25:55;101066.69;;;18.89;100.00
57827;BME280;43656;57.746;11.780;2022-08-27T18:28:21;101243.91;;;20.02;100.00
57827;BME280;43656;57.746;11.780;2022-08-27T18:33:18;101068.16;;;18.80;100.00
57827;BME280;43656;57.746;11.780;2022-08-27T18:35:44;101074.97;;;18.77;100.00
57827;BME280;43656;57.746;11.780;2022-08-27T18:38:09;101061.69;;;18.69;100.00
57827;BME280;43656;57.746;11.780;2022-08-27T18:40:45;101241.88;;;19.76;100.00
57827;BME280;43656;57.746;11.780;2022-08-27T18:43:12;101218.94;;;19.60;100.00
57827;BME280;43656;57.746;11.780;2022-08-27T18:45:38;101149.31;;;19.07;100.00
57827;BME280;43656;57.746;11.780;2022-08-27T18:48:15;101126.94;;;18.88;100.00
57827;BME280;43656;57.746;11.780;2022-08-27T18:50:46;101074.38;;;18.47;100.00
57827;BME280;43656;57.746;11.780;2022-08-27T18:53:15;101289.78;;;19.83;100.00
57827;BME280;43656;57.746;11.780;2022-08-27T18:55:41;101076.03;;;18.48;100.00
57827;BME280;43656;57.746;11.780;2022-08-27T18:58:06;101088.66;;;18.54;100.00
57827;BME280;43656;57.746;11.780;2022-08-27T19:00:32;101106.19;;;18.58;100.00
57827;BME280;43656;57.746;11.780;2022-08-27T19:02:58;101119.72;;;18.82;100.00
57827;BME280;43656;57.746;11.780;2022-08-27T19:05:27;101147.41;;;18.90;100.00
57827;BME280;43656;57.746;11.780;2022-08-27T19:07:53;101264.97;;;19.68;100.00
57827;BME280;43656;57.746;11.780;2022-08-27T19:10:19;101082.53;;;18.47;100.00
57827;BME280;43656;57.746;11.780;2022-08-27T19:12:46;101085.69;;;18.39;100.00
57827;BME280;43656;57.746;11.780;2022-08-27T19:15:12;101064.25;;;18.30;100.00
57827;BME280;43656;57.746;11.780;2022-08-27T19:17:41;101305.44;;;19.71;100.00
57827;BME280;43656;57.746;11.780;2022-08-27T19:20:08;101077.81;;;18.25;100.00
57827;BME280;43656;57.746;11.780;2022-08-27T19:27:44;101073.47;;;18.13;100.00
57827;BME280;43656;57.746;11.780;2022-08-27T19:30:11;101218.25;;;19.02;100.00
57827;BME280;43656;57.746;11.780;2022-08-27T19:32:37;101144.06;;;18.43;100.00
57827;BME280;43656;57.746;11.780;2022-08-27T19:35:03;101194.31;;;18.64;100.00
57827;BME280;43656;57.746;11.780;2022-08-27T19:37:29;101176.41;;;18.39;100.00
57827;BME280;43656;57.746;11.780;2022-08-27T19:39:56;101162.38;;;18.19;100.00
57827;BME280;43656;57.746;11.780;2022-08-27T19:42:21;101078.41;;;17.75;100.00
57827;BME280;43656;57.746;11.780;2022-08-27T19:44:47;101280.38;;;19.00;100.00
57827;BME280;43656;57.746;11.780;2022-08-27T19:47:14;101308.94;;;19.09;100.00
57827;BME280;43656;57.746;11.780;2022-08-27T19:49:42;101292.72;;;19.02;100.00
57827;BME280;43656;57.746;11.780;2022-08-27T19:52:13;101282.00;;;18.84;100.00
57827;BME280;43656;57.746;11.780;2022-08-27T19:54:39;101274.69;;;18.73;100.00
57827;BME280;43656;57.746;11.780;2022-08-27T20:07:25;101095.59;;;17.41;100.00
